Time;durP1;ratioP1;P1;durP2;ratioP2;P2;SDS_P1;SDS_P2;PMS_P1;PMS_P2;Temp;Humidity;BMP_temperature;BMP_pressure;BME280_temperature;BME280_humidity;BME280_pressure;Samples;Min_cycle;Max_cycle;Signal;HPM_P1;HPM_P2
2021/08/01 00:01:36;;;;;;;18.10;8.27;;;15.00;99.90;;;;;;5015161;28;20210;-83
2021/08/01 00:04:05;;;;;;;16.07;8.90;;;15.00;99.90;;;;;;5019595;28;20205;-83
2021/08/01 00:06:32;;;;;;;19.00;8.73;;;15.00;99.90;;;;;;5020463;28;20276;-82
2021/08/01 00:08:59;;;;;;;13.93;8.33;;;15.10;99.90;;;;;;5021486;28;20227;-82
2021/08/01 00:11:26;;;;;;;16.33;8.50;;;15.10;99.90;;;;;;5023112;28;20251;-82
2021/08/01 00:13:53;;;;;;;19.63;9.00;;;15.00;99.90;;;;;;5017718;28;20309;-85
2021/08/01 00:16:19;;;;;;;16.63;8.53;;;15.10;99.90;;;;;;5018254;28;20317;-83
2021/08/01 00:18:46;;;;;;;20.13;8.20;;;15.00;99.90;;;;;;5030031;28;20232;-81
2021/08/01 00:21:15;;;;;;;17.93;8.10;;;15.00;99.90;;;;;;5015419;28;20284;-84
2021/08/01 00:23:42;;;;;;;17.87;7.80;;;14.90;99.90;;;;;;5020349;28;20288;-83
2021/08/01 00:26:09;;;;;;;12.97;7.27;;;14.90;99.90;;;;;;5023848;28;20205;-83
2021/08/01 00:28:36;;;;;;;19.50;7.97;;;14.90;99.90;;;;;;5023631;28;20201;-81
2021/08/01 00:31:02;;;;;;;18.43;7.93;;;14.90;99.90;;;;;;5020568;28;20274;-81
2021/08/01 00:33:29;;;;;;;18.33;8.20;;;14.80;99.90;;;;;;5024411;28;20231;-83
2021/08/01 00:35:56;;;;;;;15.30;7.30;;;14.80;99.90;;;;;;5019917;28;20601;-82
2021/08/01 00:38:25;;;;;;;16.63;7.70;;;14.80;99.90;;;;;;5016584;28;20292;-83
2021/08/01 00:40:52;;;;;;;17.00;7.77;;;14.70;99.90;;;;;;5018119;28;20228;-82
2021/08/01 00:43:19;;;;;;;17.10;8.17;;;14.80;99.90;;;;;;5013013;28;20285;-82
2021/08/01 00:45:46;;;;;;;17.67;7.27;;;14.90;99.90;;;;;;5020028;28;20271;-83
2021/08/01 00:48:14;;;;;;;18.03;7.63;;;14.90;99.90;;;;;;5015560;28;20224;-83
2021/08/01 00:50:43;;;;;;;13.93;7.53;;;14.90;99.90;;;;;;5019821;28;20284;-84
2021/08/01 00:53:10;;;;;;;15.93;7.27;;;14.90;99.90;;;;;;5023647;28;20212;-81
2021/08/01 00:55:40;;;;;;;21.03;7.83;;;14.80;99.90;;;;;;5024087;28;20285;-82
2021/08/01 00:58:07;;;;;;;14.17;7.07;;;14.90;99.90;;;;;;5018625;28;20213;-82
2021/08/01 01:03:34;;;;;;;16.40;7.47;;;14.80;99.90;;;;;;5096721;27;20552;-82
2021/08/01 01:06:04;;;;;;;20.27;7.67;;;14.80;99.90;;;;;;5087335;28;20233;-83
2021/08/01 01:08:41;;;;;;;24.70;8.10;;;14.70;99.90;;;;;;5090280;28;20289;-82
2021/08/01 01:11:09;;;;;;;19.00;6.97;;;14.70;99.90;;;;;;5095351;28;20550;-81
2021/08/01 01:13:41;;;;;;;18.77;8.17;;;14.70;99.90;;;;;;5090321;28;20581;-82
2021/08/01 01:16:08;;;;;;;18.23;7.80;;;14.70;99.90;;;;;;5092507;28;20234;-82
2021/08/01 01:18:42;;;;;;;22.40;7.40;;;14.60;99.90;;;;;;5089239;28;20365;-82
2021/08/01 01:21:26;;;;;;;15.83;7.50;;;14.60;99.90;;;;;;5087517;28;20222;-81
2021/08/01 01:23:57;;;;;;;19.80;7.80;;;14.50;99.90;;;;;;5090244;28;20222;-82
2021/08/01 01:26:30;;;;;;;16.73;7.00;;;14.40;99.90;;;;;;5090463;28;20201;-83
2021/08/01 01:29:12;;;;;;;19.30;7.97;;;14.40;99.90;;;;;;5090211;28;20209;-82
2021/08/01 01:31:46;;;;;;;21.87;7.57;;;14.30;99.90;;;;;;5100619;28;20233;-83
2021/08/01 01:34:20;;;;;;;21.33;7.93;;;14.20;99.90;;;;;;5092289;28;20302;-83
2021/08/01 01:36:51;;;;;;;27.27;8.63;;;14.20;99.90;;;;;;5089485;28;20252;-81
2021/08/01 01:39:20;;;;;;;21.60;7.70;;;14.20;99.90;;;;;;5089531;28;20195;-81
2021/08/01 01:41:48;;;;;;;25.27;9.10;;;14.20;99.90;;;;;;5089595;28;20653;-82
2021/08/01 01:44:15;;;;;;;20.20;7.87;;;14.20;99.90;;;;;;5089394;28;20207;-82
2021/08/01 01:46:44;;;;;;;25.40;8.47;;;14.10;99.90;;;;;;5089469;28;20572;-82
2021/08/01 01:49:13;;;;;;;23.87;8.37;;;14.10;99.90;;;;;;5089381;28;20278;-81
2021/08/01 01:51:40;;;;;;;19.80;8.57;;;14.10;99.90;;;;;;5089801;28;20222;-82
2021/08/01 01:54:10;;;;;;;28.00;8.73;;;14.10;99.90;;;;;;5089733;28;20230;-81
2021/08/01 01:56:37;;;;;;;25.83;9.03;;;14.10;99.90;;;;;;5089430;28;20708;-81
2021/08/01 01:59:04;;;;;;;23.73;8.67;;;14.10;99.90;;;;;;5089550;28;20604;-82
2021/08/01 02:01:31;;;;;;;22.23;9.03;;;14.00;99.90;;;;;;5089501;28;20286;-82
2021/08/01 02:03:58;;;;;;;26.27;8.60;;;14.00;99.90;;;;;;5089869;28;20218;-83
2021/08/01 02:06:25;;;;;;;24.60;9.70;;;14.00;99.90;;;;;;5089515;28;20201;-81
2021/08/01 02:09:01;;;;;;;32.33;10.20;;;14.00;99.90;;;;;;5089306;28;20234;-83
2021/08/01 02:11:36;;;;;;;32.17;9.50;;;14.00;99.90;;;;;;5088861;28;20256;-81
2021/08/01 02:14:09;;;;;;;27.90;9.57;;;14.10;99.90;;;;;;5080018;28;20707;-83
2021/08/01 02:16:40;;;;;;;22.90;9.40;;;14.10;99.90;;;;;;5075677;28;20210;-82
2021/08/01 02:19:09;;;;;;;28.03;9.50;;;14.10;99.90;;;;;;5075499;28;20210;-84
2021/08/01 02:21:40;;;;;;;25.90;9.10;;;14.10;99.90;;;;;;5075444;28;20230;-84
2021/08/01 02:24:08;;;;;;;26.93;9.97;;;14.10;99.90;;;;;;5076121;28;20286;-82
2021/08/01 02:26:37;;;;;;;28.27;9.87;;;14.20;99.90;;;;;;5075637;28;20282;-82
2021/08/01 02:29:06;;;;;;;31.37;10.30;;;14.30;99.90;;;;;;5074508;28;20207;-81
2021/08/01 02:31:34;;;;;;;23.17;9.30;;;14.40;99.90;;;;;;5075829;28;20219;-81
2021/08/01 02:34:00;;;;;;;35.97;9.57;;;14.50;99.90;;;;;;5075578;28;20282;-82
2021/08/01 02:36:28;;;;;;;29.20;10.33;;;14.50;99.90;;;;;;5075742;28;20210;-84
2021/08/01 02:38:59;;;;;;;29.73;9.97;;;14.60;99.90;;;;;;5075225;28;20264;-82
2021/08/01 02:41:31;;;;;;;26.50;9.53;;;14.70;99.90;;;;;;5075607;28;20325;-82
2021/08/01 02:44:03;;;;;;;22.77;9.00;;;14.80;99.90;;;;;;5075636;28;20556;-82
2021/08/01 02:46:31;;;;;;;21.77;8.80;;;14.80;99.90;;;;;;5075393;28;20795;-82
2021/08/01 02:49:02;;;;;;;21.53;9.50;;;14.80;99.90;;;;;;5075645;28;20278;-84
2021/08/01 02:51:31;;;;;;;31.27;9.20;;;14.90;99.90;;;;;;5076233;28;20214;-82
2021/08/01 02:53:59;;;;;;;28.30;9.20;;;14.80;99.90;;;;;;5075030;28;20219;-81
2021/08/01 02:56:29;;;;;;;20.37;9.30;;;14.90;99.90;;;;;;5075393;28;20234;-82
2021/08/01 02:58:57;;;;;;;23.77;8.67;;;14.90;99.90;;;;;;5076236;28;20223;-81
2021/08/01 03:01:26;;;;;;;23.17;8.40;;;14.90;99.90;;;;;;5074674;28;20238;-82
2021/08/01 03:03:55;;;;;;;26.17;8.37;;;15.00;99.90;;;;;;5084876;28;20223;-80
2021/08/01 03:06:22;;;;;;;25.87;8.73;;;15.00;99.90;;;;;;5087186;28;20226;-80
2021/08/01 03:08:49;;;;;;;32.10;8.30;;;15.10;99.90;;;;;;5087867;28;20203;-81
2021/08/01 03:11:23;;;;;;;25.17;9.13;;;15.10;99.90;;;;;;5087405;28;20293;-80
2021/08/01 03:13:50;;;;;;;29.40;9.00;;;15.10;99.90;;;;;;5088996;28;20282;-79
2021/08/01 03:16:17;;;;;;;30.50;8.80;;;15.10;99.90;;;;;;5089715;28;20234;-80
2021/08/01 03:18:45;;;;;;;35.53;10.10;;;15.10;99.90;;;;;;5089155;28;20203;-80
2021/08/01 03:21:12;;;;;;;29.60;9.20;;;15.00;99.90;;;;;;5090636;28;20207;-82
2021/08/01 03:23:39;;;;;;;28.37;9.00;;;15.10;99.90;;;;;;5091152;28;20227;-80
2021/08/01 03:26:06;;;;;;;30.67;9.23;;;15.10;99.90;;;;;;5086372;28;20196;-81
2021/08/01 03:28:33;;;;;;;20.67;8.93;;;15.10;99.90;;;;;;5074506;28;20199;-82
2021/08/01 03:31:00;;;;;;;28.30;9.70;;;15.10;99.90;;;;;;5075231;28;20198;-81
2021/08/01 03:33:27;;;;;;;26.30;9.63;;;15.00;99.90;;;;;;5074758;28;20298;-81
2021/08/01 03:35:55;;;;;;;26.10;10.13;;;15.10;99.90;;;;;;5074511;28;20274;-80
2021/08/01 03:38:22;;;;;;;28.90;9.87;;;15.00;99.90;;;;;;5074742;28;20663;-81
2021/08/01 03:40:50;;;;;;;33.07;9.37;;;15.10;99.90;;;;;;5074096;28;20645;-81
2021/08/01 03:43:17;;;;;;;23.20;9.50;;;15.10;99.90;;;;;;5074431;28;20215;-81
2021/08/01 03:45:44;;;;;;;29.23;9.30;;;15.10;99.90;;;;;;5074158;28;20721;-81
2021/08/01 03:48:11;;;;;;;22.03;8.73;;;15.20;99.90;;;;;;5074447;28;20188;-82
2021/08/01 03:50:38;;;;;;;32.53;9.70;;;15.10;99.90;;;;;;5074271;28;20238;-81
2021/08/01 03:53:06;;;;;;;30.57;8.90;;;15.10;99.90;;;;;;5074682;28;20613;-82
2021/08/01 03:55:35;;;;;;;29.30;9.83;;;15.10;99.90;;;;;;5073928;28;20191;-81
2021/08/01 03:58:01;;;;;;;33.53;9.17;;;15.10;99.90;;;;;;5073946;28;20603;-81
2021/08/01 04:00:28;;;;;;;27.57;9.80;;;15.10;99.90;;;;;;5073967;28;20199;-82
2021/08/01 04:02:55;;;;;;;31.97;9.67;;;15.20;99.90;;;;;;5073344;28;20222;-81
2021/08/01 04:05:22;;;;;;;30.13;10.73;;;15.20;99.90;;;;;;5074197;28;20227;-81
2021/08/01 04:07:49;;;;;;;32.90;10.10;;;15.10;99.90;;;;;;5073946;28;20282;-81
2021/08/01 04:10:17;;;;;;;30.23;10.40;;;15.10;99.90;;;;;;5073550;28;20192;-81
2021/08/01 04:12:44;;;;;;;28.73;10.10;;;15.20;99.90;;;;;;5073703;28;20612;-81
2021/08/01 04:15:13;;;;;;;26.13;10.77;;;15.20;99.90;;;;;;5073950;28;20234;-81
2021/08/01 04:17:40;;;;;;;33.60;10.50;;;15.20;99.90;;;;;;5073433;28;20629;-82
2021/08/01 04:20:08;;;;;;;30.83;10.30;;;15.20;99.90;;;;;;5073372;28;20279;-81
2021/08/01 04:22:35;;;;;;;30.43;10.53;;;15.20;99.90;;;;;;5073699;28;20227;-81
2021/08/01 04:25:02;;;;;;;37.17;10.93;;;15.20;99.90;;;;;;5073361;28;20274;-82
2021/08/01 04:27:30;;;;;;;30.80;11.20;;;15.10;99.90;;;;;;5073173;28;20740;-82
2021/08/01 04:29:57;;;;;;;37.57;11.20;;;15.00;99.90;;;;;;5073591;28;20278;-81
2021/08/01 04:32:24;;;;;;;31.33;11.00;;;15.00;99.90;;;;;;5073201;28;20648;-82
2021/08/01 04:34:51;;;;;;;30.83;12.10;;;15.00;99.90;;;;;;5073435;28;20657;-83
2021/08/01 04:37:18;;;;;;;43.27;11.73;;;14.90;99.90;;;;;;5073356;28;20226;-81
2021/08/01 04:39:45;;;;;;;39.47;11.80;;;14.90;99.90;;;;;;5073519;28;20298;-82
2021/08/01 04:42:11;;;;;;;30.20;11.83;;;14.90;99.90;;;;;;5073070;28;20214;-81
2021/08/01 04:44:40;;;;;;;42.83;12.30;;;15.00;99.90;;;;;;5072845;28;20637;-82
2021/08/01 04:47:07;;;;;;;41.40;12.37;;;15.00;99.90;;;;;;5073229;28;20207;-81
2021/08/01 04:49:33;;;;;;;40.30;12.23;;;15.10;99.90;;;;;;5072775;28;20219;-82
2021/08/01 04:52:00;;;;;;;40.00;12.30;;;15.10;99.90;;;;;;5073135;28;20223;-81
2021/08/01 04:54:27;;;;;;;36.40;13.77;;;15.10;99.90;;;;;;5072847;28;20238;-81
2021/08/01 04:56:54;;;;;;;36.47;12.60;;;15.00;99.90;;;;;;5072867;28;20195;-83
2021/08/01 04:59:21;;;;;;;38.67;13.70;;;15.10;99.90;;;;;;5073144;28;20227;-81
2021/08/01 05:01:49;;;;;;;38.07;12.97;;;15.20;99.90;;;;;;5072898;28;20234;-81
2021/08/01 05:04:16;;;;;;;31.73;12.17;;;15.20;99.90;;;;;;5072734;28;20300;-82
2021/08/01 05:06:43;;;;;;;40.50;13.13;;;15.20;99.90;;;;;;5073092;28;20195;-81
2021/08/01 05:09:10;;;;;;;39.00;13.07;;;15.30;99.90;;;;;;5072895;28;20278;-81
2021/08/01 05:11:37;;;;;;;35.40;13.97;;;15.30;99.90;;;;;;5072840;28;20287;-81
2021/08/01 05:14:04;;;;;;;37.43;13.00;;;15.30;99.90;;;;;;5072837;28;20222;-83
2021/08/01 05:16:31;;;;;;;36.67;11.70;;;15.30;99.90;;;;;;5072895;28;20494;-81
2021/08/01 05:18:59;;;;;;;35.27;12.00;;;15.30;99.90;;;;;;5072500;28;20909;-82
2021/08/01 05:21:26;;;;;;;35.30;12.77;;;15.40;99.90;;;;;;5072547;28;20641;-81
2021/08/01 05:23:53;;;;;;;35.07;12.67;;;15.40;99.90;;;;;;5072599;28;20691;-84
2021/08/01 05:26:20;;;;;;;35.90;12.47;;;15.40;99.90;;;;;;5070251;28;20294;-83
2021/08/01 05:28:47;;;;;;;36.77;13.03;;;15.50;99.90;;;;;;5072558;28;20243;-82
2021/08/01 05:31:14;;;;;;;33.60;13.30;;;15.50;99.90;;;;;;5072925;28;20274;-80
2021/08/01 05:33:41;;;;;;;34.20;13.67;;;15.60;99.90;;;;;;5071664;28;20238;-80
2021/08/01 05:36:10;;;;;;;34.83;12.93;;;15.80;99.90;;;;;;5072300;28;20199;-81
2021/08/01 05:38:38;;;;;;;36.37;13.20;;;15.80;99.90;;;;;;5072396;28;20199;-81
2021/08/01 05:41:05;;;;;;;34.33;12.63;;;15.80;99.90;;;;;;5072545;28;20617;-81
2021/08/01 05:43:34;;;;;;;39.80;13.17;;;15.90;99.90;;;;;;5071602;28;20247;-82
2021/08/01 05:46:01;;;;;;;38.30;14.37;;;15.90;99.90;;;;;;5072065;28;20641;-81
2021/08/01 05:48:27;;;;;;;38.83;14.00;;;15.80;99.90;;;;;;5071767;28;20675;-82
2021/08/01 05:50:54;;;;;;;32.77;13.73;;;15.80;99.90;;;;;;5075498;28;20219;-81
2021/08/01 05:53:24;;;;;;;35.57;13.30;;;15.90;99.90;;;;;;5076027;28;20257;-82
2021/08/01 05:55:51;;;;;;;32.27;13.03;;;16.20;99.90;;;;;;5075865;28;20213;-81
2021/08/01 05:58:18;;;;;;;30.40;12.70;;;16.20;99.90;;;;;;5076057;28;20223;-81
2021/08/01 06:00:45;;;;;;;34.07;13.80;;;16.30;99.90;;;;;;5075700;28;20283;-81
2021/08/01 06:03:12;;;;;;;31.40;12.27;;;16.30;99.90;;;;;;5075944;28;20254;-81
2021/08/01 06:05:39;;;;;;;34.80;12.67;;;16.50;99.90;;;;;;5075300;28;20200;-82
2021/08/01 06:08:06;;;;;;;36.03;13.10;;;16.60;99.90;;;;;;5075594;28;20192;-81
2021/08/01 06:10:34;;;;;;;28.60;12.43;;;16.80;99.90;;;;;;5075849;28;20227;-82
2021/08/01 06:13:01;;;;;;;29.87;13.33;;;16.80;99.90;;;;;;5075426;28;20563;-83
2021/08/01 06:15:27;;;;;;;29.77;12.73;;;17.00;99.90;;;;;;5075506;28;20196;-81
2021/08/01 06:17:54;;;;;;;25.97;12.97;;;17.10;99.90;;;;;;5075401;28;20230;-82
2021/08/01 06:20:21;;;;;;;27.63;12.63;;;17.30;99.90;;;;;;5074796;28;20195;-81
2021/08/01 06:22:48;;;;;;;27.87;12.00;;;17.70;99.90;;;;;;5074827;28;20279;-82
2021/08/01 06:25:15;;;;;;;28.53;11.93;;;17.90;99.90;;;;;;5075176;28;20306;-81
2021/08/01 06:27:43;;;;;;;24.87;12.23;;;18.10;99.90;;;;;;5072436;28;20222;-82
2021/08/01 06:30:11;;;;;;;18.87;11.37;;;18.20;99.90;;;;;;5074358;28;20306;-82
2021/08/01 06:32:38;;;;;;;22.87;12.07;;;18.60;99.90;;;;;;5075087;28;20205;-83
2021/08/01 06:35:06;;;;;;;22.77;10.07;;;19.10;99.90;;;;;;5072962;28;20223;-82
2021/08/01 06:37:33;;;;;;;22.60;10.70;;;19.50;99.90;;;;;;5074609;28;20231;-82
2021/08/01 06:40:00;;;;;;;21.70;9.70;;;19.90;99.90;;;;;;5075120;28;20718;-83
2021/08/01 06:42:27;;;;;;;22.23;9.83;;;20.60;99.90;;;;;;5074842;28;20274;-81
2021/08/01 06:44:55;;;;;;;18.13;9.23;;;20.80;99.90;;;;;;5074076;28;20310;-81
2021/08/01 06:47:22;;;;;;;21.27;9.27;;;21.10;99.90;;;;;;5074625;28;20273;-82
2021/08/01 06:49:49;;;;;;;19.50;8.83;;;21.50;99.90;;;;;;5074104;28;20358;-83
2021/08/01 06:52:15;;;;;;;13.77;8.80;;;21.60;99.90;;;;;;5074401;28;20278;-81
2021/08/01 06:54:42;;;;;;;18.00;8.77;;;21.90;99.90;;;;;;5074053;28;20230;-82
2021/08/01 06:57:09;;;;;;;21.43;9.63;;;21.70;99.90;;;;;;5073738;28;20227;-82
2021/08/01 06:59:36;;;;;;;20.83;9.00;;;21.10;99.90;;;;;;5073988;28;20641;-83
2021/08/01 07:02:04;;;;;;;23.25;9.77;;;21.00;99.90;;;;;;5073949;28;20256;-81
2021/08/01 07:04:32;;;;;;;15.17;8.93;;;20.50;99.90;;;;;;5073830;28;20223;-82
2021/08/01 07:07:00;;;;;;;18.57;8.93;;;20.20;99.90;;;;;;5074171;28;20199;-81
2021/08/01 07:09:27;;;;;;;16.93;9.20;;;20.10;99.90;;;;;;5074416;28;20204;-82
2021/08/01 07:11:55;;;;;;;17.57;9.40;;;20.10;99.90;;;;;;5074073;28;20204;-81
2021/08/01 07:14:21;;;;;;;19.77;9.97;;;19.90;99.90;;;;;;5074115;28;20290;-81
2021/08/01 07:16:48;;;;;;;22.67;10.23;;;19.90;99.90;;;;;;5074294;28;20216;-82
2021/08/01 07:19:17;;;;;;;18.57;9.90;;;20.20;99.90;;;;;;5074246;28;20516;-82
2021/08/01 07:21:43;;;;;;;17.50;10.30;;;20.00;99.90;;;;;;5073809;28;20642;-82
2021/08/01 07:24:10;;;;;;;21.63;10.53;;;20.00;99.90;;;;;;5073927;28;20295;-83
2021/08/01 07:26:37;;;;;;;22.90;10.33;;;20.00;99.90;;;;;;5074242;28;20196;-82
2021/08/01 07:29:04;;;;;;;21.40;10.53;;;20.20;99.90;;;;;;5071054;28;20207;-82
2021/08/01 07:31:31;;;;;;;19.33;10.67;;;20.40;99.90;;;;;;5076349;28;20196;-81
2021/08/01 07:34:00;;;;;;;18.63;10.33;;;20.10;99.90;;;;;;5073554;28;20195;-83
2021/08/01 07:36:28;;;;;;;25.27;10.90;;;20.10;99.90;;;;;;5073628;28;20654;-82
2021/08/01 07:38:56;;;;;;;20.00;10.73;;;20.10;99.90;;;;;;5074267;28;20195;-83
2021/08/01 07:41:23;;;;;;;21.13;10.90;;;20.10;99.90;;;;;;5073615;28;20294;-82
2021/08/01 07:43:51;;;;;;;24.30;10.70;;;20.30;99.90;;;;;;5073986;28;20219;-81
2021/08/01 07:46:18;;;;;;;16.97;10.03;;;20.80;99.90;;;;;;5073372;28;20637;-83
2021/08/01 07:48:45;;;;;;;18.80;10.18;;;21.70;99.90;;;;;;5074370;28;20199;-82
2021/08/01 07:51:13;;;;;;;17.38;10.50;;;22.00;99.90;;;;;;5073089;28;20199;-82
2021/08/01 07:53:41;;;;;;;18.95;10.38;;;22.10;99.90;;;;;;5073763;28;20227;-83
2021/08/01 07:56:08;;;;;;;23.45;11.65;;;22.20;99.90;;;;;;5074197;28;20641;-84
2021/08/01 07:58:35;;;;;;;19.15;11.60;;;22.00;99.90;;;;;;5073934;28;20287;-83
2021/08/01 08:01:02;;;;;;;20.73;12.50;;;22.40;99.90;;;;;;5072200;28;20237;-82
2021/08/01 08:03:28;;;;;;;18.70;12.02;;;22.10;99.90;;;;;;5069241;28;20282;-82
2021/08/01 08:05:55;;;;;;;23.60;12.85;;;21.90;99.90;;;;;;5073071;28;20657;-83
2021/08/01 08:08:22;;;;;;;22.25;13.05;;;22.00;99.90;;;;;;5073325;28;20313;-82
2021/08/01 08:10:50;;;;;;;18.02;12.80;;;22.10;99.90;;;;;;5072872;28;20286;-82
2021/08/01 08:13:17;;;;;;;19.67;12.57;;;21.80;99.90;;;;;;5073317;28;20210;-83
2021/08/01 08:15:44;;;;;;;18.75;13.07;;;21.70;99.90;;;;;;5073121;28;20703;-82
2021/08/01 08:18:11;;;;;;;22.20;13.25;;;21.50;99.90;;;;;;5073633;28;20274;-83
2021/08/01 08:20:38;;;;;;;21.48;14.18;;;21.50;99.90;;;;;;5073700;28;20253;-83
2021/08/01 08:23:05;;;;;;;23.92;14.88;;;21.30;99.90;;;;;;5072957;28;20270;-83
2021/08/01 08:25:32;;;;;;;23.40;14.57;;;20.90;99.90;;;;;;5073029;28;20250;-84
2021/08/01 08:28:02;;;;;;;25.33;15.03;;;20.90;99.90;;;;;;5073212;28;20282;-83
2021/08/01 08:30:29;;;;;;;26.58;14.50;;;21.10;99.90;;;;;;5073085;28;20214;-83
2021/08/01 08:32:56;;;;;;;23.00;13.90;;;21.50;99.90;;;;;;5073354;28;20223;-83
2021/08/01 08:35:23;;;;;;;19.13;13.40;;;22.10;99.90;;;;;;5073434;28;20310;-84
2021/08/01 08:37:52;;;;;;;20.80;12.63;;;22.40;99.90;;;;;;5073064;28;20674;-82
2021/08/01 08:40:19;;;;;;;24.25;13.70;;;22.40;99.90;;;;;;5073321;28;20548;-82
2021/08/01 08:42:48;;;;;;;20.45;13.20;;;22.40;99.90;;;;;;5073845;28;20229;-83
2021/08/01 08:45:17;;;;;;;20.63;13.93;;;22.40;99.90;;;;;;5072951;28;20219;-84
2021/08/01 08:47:45;;;;;;;18.90;13.52;;;22.00;99.90;;;;;;5074163;28;20210;-83
2021/08/01 08:50:15;;;;;;;18.38;12.88;;;22.10;99.90;;;;;;5073403;28;20482;-82
2021/08/01 08:52:44;;;;;;;21.15;13.50;;;22.10;99.90;;;;;;5073474;28;20247;-83
2021/08/01 08:55:12;;;;;;;20.50;12.75;;;22.20;99.90;;;;;;5074184;28;20234;-83
2021/08/01 08:57:42;;;;;;;20.77;13.02;;;22.50;99.90;;;;;;5067355;28;20203;-83
2021/08/01 09:00:11;;;;;;;18.13;12.18;;;23.00;99.90;;;;;;5073104;28;20585;-84
2021/08/01 09:02:41;;;;;;;17.60;11.98;;;23.30;99.90;;;;;;5073686;28;20318;-84
2021/08/01 09:05:09;;;;;;;19.85;12.38;;;23.20;99.90;;;;;;5073750;28;20689;-84
2021/08/01 09:07:39;;;;;;;20.83;12.52;;;23.40;99.90;;;;;;5077507;28;20243;-82
2021/08/01 09:10:07;;;;;;;21.38;12.23;;;23.70;99.90;;;;;;5096580;28;20203;-85
2021/08/01 09:12:41;;;;;;;18.98;12.27;;;23.90;99.90;;;;;;5085850;28;20256;-84
2021/08/01 09:15:09;;;;;;;19.35;11.82;;;24.00;99.90;;;;;;5084095;28;20191;-86
2021/08/01 09:17:42;;;;;;;14.18;11.30;;;24.20;99.90;;;;;;5087960;28;20538;-85
2021/08/01 09:20:18;;;;;;;18.23;11.65;;;24.70;99.90;;;;;;5090919;28;20207;-85
2021/08/01 09:23:16;;;;;;;20.15;12.40;;;24.50;99.90;;;;;;5081935;28;20205;-86
2021/08/01 09:25:58;;;;;;;17.70;12.43;;;24.40;99.90;;;;;;5095651;28;20224;-83
2021/08/01 09:28:25;;;;;;;17.83;12.85;;;24.60;99.90;;;;;;5097687;28;20199;-85
2021/08/01 09:30:53;;;;;;;17.10;12.80;;;24.80;99.90;;;;;;5078084;28;20218;-86
2021/08/01 09:33:36;;;;;;;20.52;12.77;;;25.10;99.90;;;;;;5085922;28;20203;-84
2021/08/01 09:36:09;;;;;;;14.85;12.95;;;24.50;99.90;;;;;;5083282;28;20268;-82
2021/08/01 09:38:50;;;;;;;20.17;13.32;;;24.70;99.90;;;;;;5067389;28;20226;-84
2021/08/01 09:41:19;;;;;;;18.25;12.40;;;24.90;99.90;;;;;;5069115;28;20282;-84
2021/08/01 09:43:48;;;;;;;17.98;13.05;;;25.00;99.90;;;;;;5071930;28;20196;-83
2021/08/01 09:46:15;;;;;;;18.65;12.52;;;24.90;99.90;;;;;;5076026;28;20199;-83
2021/08/01 09:48:44;;;;;;;16.95;11.55;;;25.50;99.90;;;;;;5072656;28;20330;-83
2021/08/01 09:51:11;;;;;;;16.58;12.25;;;25.80;99.90;;;;;;5077338;28;20263;-86
2021/08/01 09:53:43;;;;;;;14.45;10.95;;;26.20;99.90;;;;;;5077051;28;20210;-83
2021/08/01 09:56:14;;;;;;;14.30;11.75;;;26.00;99.90;;;;;;5076325;28;20270;-83
2021/08/01 09:58:42;;;;;;;14.60;10.30;;;26.50;99.90;;;;;;5076182;28;20219;-83
2021/08/01 10:01:09;;;;;;;14.60;9.73;;;28.10;99.90;;;;;;5075765;28;20253;-82
2021/08/01 10:03:38;;;;;;;16.05;9.38;;;28.90;99.90;;;;;;5075692;28;20242;-83
2021/08/01 10:06:13;;;;;;;11.73;8.45;;;29.70;99.90;;;;;;5075645;28;20680;-84
2021/08/01 10:08:41;;;;;;;11.70;7.35;;;30.30;99.90;;;;;;5075039;28;20622;-86
2021/08/01 10:11:12;;;;;;;14.25;7.28;;;31.10;99.90;;;;;;5073829;28;20200;-85
2021/08/01 10:13:44;;;;;;;10.05;6.32;;;30.80;99.90;;;;;;5075040;28;20200;-85
2021/08/01 10:16:11;;;;;;;7.95;5.95;;;30.30;99.90;;;;;;5073529;28;20206;-85
2021/08/01 10:18:39;;;;;;;10.00;5.60;;;29.90;99.90;;;;;;5071954;28;20225;-85
2021/08/01 10:21:07;;;;;;;8.57;5.07;;;29.40;99.90;;;;;;5074908;28;20588;-84
2021/08/01 10:23:42;;;;;;;10.57;5.50;;;30.00;99.90;;;;;;5075839;28;20203;-85
2021/08/01 10:26:10;;;;;;;8.20;5.15;;;30.20;99.90;;;;;;5062536;28;20676;-85
2021/08/01 10:28:42;;;;;;;6.78;4.93;;;30.30;99.90;;;;;;5074919;28;20207;-86
2021/08/01 10:31:12;;;;;;;8.60;5.78;;;30.20;99.90;;;;;;5075328;28;20210;-84
2021/08/01 10:33:47;;;;;;;17.80;6.97;;;28.90;99.90;;;;;;5075364;28;20195;-84
2021/08/01 10:36:21;;;;;;;11.25;7.07;;;26.90;99.90;;;;;;5072984;28;20187;-84
2021/08/01 10:38:50;;;;;;;10.00;7.47;;;24.80;99.90;;;;;;5072420;28;20207;-83
2021/08/01 10:41:20;;;;;;;12.85;8.10;;;23.40;99.90;;;;;;5074572;28;20195;-81
2021/08/01 10:43:49;;;;;;;11.98;8.80;;;22.10;99.90;;;;;;5075560;28;20195;-83
2021/08/01 10:46:20;;;;;;;18.73;9.73;;;21.00;99.90;;;;;;5074412;28;20220;-84
2021/08/01 10:48:47;;;;;;;18.25;11.75;;;20.50;99.90;;;;;;5067390;28;20205;-83
2021/08/01 10:51:15;;;;;;;20.65;11.38;;;20.10;99.90;;;;;;5081633;28;20199;-84
2021/08/01 10:53:45;;;;;;;18.03;11.93;;;19.80;99.90;;;;;;5097559;28;20187;-85
2021/08/01 10:56:38;;;;;;;17.77;14.47;;;19.30;99.90;;;;;;5096513;28;20191;-85
2021/08/01 10:59:05;;;;;;;23.93;14.70;;;18.60;99.90;;;;;;5094300;28;20192;-84
2021/08/01 11:01:32;;;;;;;20.77;15.47;;;18.30;99.90;;;;;;5095164;28;20223;-79
2021/08/01 11:04:29;;;;;;;24.77;17.90;;;18.20;99.90;;;;;;5081137;28;20644;-81
2021/08/01 11:06:56;;;;;;;23.33;18.03;;;18.10;99.90;;;;;;5073147;28;20204;-82
2021/08/01 11:09:23;;;;;;;23.10;18.17;;;18.30;99.90;;;;;;5067931;28;20212;-81
2021/08/01 11:15:03;;;;;;;13.03;8.27;;;18.10;99.90;;;;;;5094683;27;1329722;-75
2021/08/01 11:18:07;;;;;;;7.53;6.83;;;17.90;99.90;;;;;;5127386;28;20702;-75
2021/08/01 11:20:53;;;;;;;7.43;6.73;;;17.70;99.90;;;;;;5120594;28;20663;-76
2021/08/01 11:23:20;;;;;;;7.97;6.90;;;17.50;99.90;;;;;;5113258;28;20206;-75
2021/08/01 11:26:11;;;;;;;7.50;6.13;;;17.50;99.90;;;;;;5115221;28;20250;-74
2021/08/01 11:28:39;;;;;;;9.13;7.73;;;17.40;99.90;;;;;;5127284;28;20280;-74
2021/08/01 11:31:25;;;;;;;15.07;7.63;;;17.40;99.90;;;;;;5119979;28;20205;-76
2021/08/01 11:33:54;;;;;;;9.80;7.70;;;17.50;99.90;;;;;;5120083;28;20213;-75
2021/08/01 11:36:30;;;;;;;12.73;8.93;;;17.50;99.90;;;;;;5122170;28;20197;-75
2021/08/01 11:39:07;;;;;;;13.20;10.27;;;17.60;99.90;;;;;;5113527;28;20205;-75
2021/08/01 11:41:43;;;;;;;14.40;10.73;;;17.50;99.90;;;;;;5113162;28;20217;-75
2021/08/01 11:44:16;;;;;;;17.63;9.53;;;17.50;99.90;;;;;;5109664;28;20289;-75
2021/08/01 11:47:03;;;;;;;14.43;10.40;;;17.50;99.90;;;;;;5111416;28;20233;-75
2021/08/01 11:49:33;;;;;;;13.77;8.23;;;17.60;99.90;;;;;;5109683;28;20204;-75
2021/08/01 11:52:02;;;;;;;12.93;8.23;;;17.60;99.90;;;;;;5112923;28;20259;-75
2021/08/01 11:54:30;;;;;;;10.63;7.17;;;17.70;99.90;;;;;;5124761;28;20694;-75
2021/08/01 11:57:01;;;;;;;8.80;6.47;;;17.80;99.90;;;;;;5129678;28;20634;-75
2021/08/01 11:59:29;;;;;;;9.40;6.47;;;17.70;99.90;;;;;;5126923;28;20208;-74
2021/08/01 12:01:58;;;;;;;10.83;6.43;;;17.80;99.90;;;;;;5117536;28;20284;-75
2021/08/01 12:04:25;;;;;;;10.43;6.17;;;17.90;99.90;;;;;;5121955;28;20193;-75
2021/08/01 12:06:54;;;;;;;7.77;6.17;;;18.10;99.90;;;;;;5123744;28;20288;-75
2021/08/01 12:09:23;;;;;;;6.83;5.50;;;18.20;99.90;;;;;;5127068;28;20216;-75
2021/08/01 12:11:52;;;;;;;10.53;5.03;;;18.50;99.90;;;;;;5118544;28;20292;-75
2021/08/01 12:14:23;;;;;;;6.63;4.67;;;18.70;99.90;;;;;;5117068;28;20312;-75
2021/08/01 12:16:54;;;;;;;7.80;4.90;;;18.80;99.90;;;;;;5122463;28;20717;-74
2021/08/01 12:19:24;;;;;;;6.27;4.07;;;18.90;99.90;;;;;;5107066;28;20194;-75
2021/08/01 12:21:54;;;;;;;6.57;4.63;;;19.00;99.90;;;;;;5123440;28;20198;-75
2021/08/01 12:24:33;;;;;;;8.23;4.80;;;19.10;99.90;;;;;;5119004;28;20205;-75
2021/08/01 12:27:03;;;;;;;6.03;4.73;;;19.20;99.90;;;;;;5109331;28;20201;-76
2021/08/01 12:29:32;;;;;;;7.03;4.80;;;19.30;99.90;;;;;;5102832;28;20230;-77
2021/08/01 12:31:59;;;;;;;5.37;4.87;;;19.40;99.90;;;;;;5099867;28;20289;-76
2021/08/01 12:34:28;;;;;;;7.37;4.80;;;19.70;99.90;;;;;;5109402;28;20268;-76
2021/08/01 12:36:56;;;;;;;7.70;5.23;;;20.00;99.90;;;;;;5110568;28;20202;-77
2021/08/01 12:39:22;;;;;;;5.57;4.97;;;20.20;99.90;;;;;;5100188;28;20257;-75
2021/08/01 12:41:51;;;;;;;6.63;5.60;;;20.20;99.90;;;;;;5099078;28;20709;-76
2021/08/01 12:44:19;;;;;;;9.37;5.50;;;20.30;99.90;;;;;;5096859;28;20211;-77
2021/08/01 12:46:47;;;;;;;8.70;6.20;;;20.40;99.90;;;;;;5109184;28;20633;-77
2021/08/01 12:49:15;;;;;;;6.70;6.00;;;20.40;99.90;;;;;;5113701;28;20268;-78